createdAt,value
2022-10-15T00:00:53.493Z,1000.83
2022-10-15T00:01:53.570Z,1000.82
2022-10-15T00:02:53.474Z,1000.79
2022-10-15T00:03:53.516Z,1000.86
2022-10-15T00:04:53.444Z,1000.87
2022-10-15T00:05:53.511Z,1000.83
2022-10-15T00:06:53.423Z,1000.79
2022-10-15T00:07:53.442Z,1000.80
2022-10-15T00:08:53.423Z,1000.76
2022-10-15T00:09:53.408Z,1000.72
2022-10-15T00:10:53.403Z,1000.67
2022-10-15T00:11:53.394Z,1000.66
2022-10-15T00:12:53.458Z,1000.65
2022-10-15T00:13:53.375Z,1000.68
2022-10-15T00:14:53.334Z,1000.67
2022-10-15T00:15:53.326Z,1000.65
2022-10-15T00:16:53.313Z,1000.69
2022-10-15T00:17:53.305Z,1000.68
2022-10-15T00:18:53.333Z,1000.59
2022-10-15T00:19:53.293Z,1000.62
2022-10-15T00:20:53.263Z,1000.62
2022-10-15T00:21:53.343Z,1000.62
2022-10-15T00:22:53.244Z,1000.58
2022-10-15T00:23:53.239Z,1000.60
2022-10-15T00:24:53.252Z,1000.62
2022-10-15T00:25:53.213Z,1000.62
2022-10-15T00:26:53.234Z,1000.70
2022-10-15T00:27:53.234Z,1000.64
2022-10-15T00:28:53.266Z,1000.64
2022-10-15T00:29:53.173Z,1000.61
2022-10-15T00:30:53.192Z,1000.64
2022-10-15T00:31:53.153Z,1000.64
2022-10-15T00:32:53.170Z,1000.62
2022-10-15T00:33:53.154Z,1000.59
2022-10-15T00:34:53.113Z,1000.54
2022-10-15T00:35:53.114Z,1000.57
2022-10-15T00:36:53.093Z,1000.53
2022-10-15T00:37:53.113Z,1000.63
2022-10-15T00:38:53.072Z,1000.59
2022-10-15T00:39:53.129Z,1000.66
2022-10-15T00:40:53.053Z,1000.65
2022-10-15T00:41:53.114Z,1000.68
2022-10-15T00:42:53.063Z,1000.64
2022-10-15T00:43:53.072Z,1000.65
2022-10-15T00:44:53.073Z,1000.63
2022-10-15T00:45:53.002Z,1000.66
2022-10-15T00:46:53.002Z,1000.63
2022-10-15T00:47:52.975Z,1000.64
2022-10-15T00:48:53.044Z,1000.61
2022-10-15T00:49:52.983Z,1000.65
2022-10-15T00:50:52.960Z,1000.67
2022-10-15T00:51:52.932Z,1000.62
2022-10-15T00:52:52.932Z,1000.66
2022-10-15T00:53:52.919Z,1000.61
2022-10-15T00:54:52.907Z,1000.62
2022-10-15T00:55:52.922Z,1000.63
2022-10-15T00:56:52.891Z,1000.62
2022-10-15T00:57:52.894Z,1000.62
2022-10-15T00:58:52.862Z,1000.64
2022-10-15T00:59:52.879Z,1000.68
2022-10-15T01:00:52.897Z,1000.66
2022-10-15T01:01:52.822Z,1000.67
2022-10-15T01:02:52.822Z,1000.68
2022-10-15T01:03:52.802Z,1000.72
2022-10-15T01:04:52.842Z,1000.68
2022-10-15T01:05:52.783Z,1000.67
2022-10-15T01:06:52.782Z,1000.67
2022-10-15T01:07:52.793Z,1000.69
2022-10-15T01:08:52.759Z,1000.66
2022-10-15T01:09:52.742Z,1000.70
2022-10-15T01:10:52.732Z,1000.73
2022-10-15T01:11:52.741Z,1000.73
2022-10-15T01:12:52.712Z,1000.71
2022-10-15T01:13:52.724Z,1000.71
2022-10-15T01:14:52.715Z,1000.71
2022-10-15T01:15:52.672Z,1000.65
2022-10-15T01:16:52.672Z,1000.64
2022-10-15T01:17:52.652Z,1000.61
2022-10-15T01:18:52.649Z,1000.57
2022-10-15T01:19:52.662Z,1000.57
2022-10-15T01:20:52.622Z,1000.55
2022-10-15T01:21:52.611Z,1000.60
2022-10-15T01:22:52.601Z,1000.58
2022-10-15T01:23:52.614Z,1000.63
2022-10-15T01:24:52.582Z,1000.60
2022-10-15T01:25:52.564Z,1000.65
2022-10-15T01:26:52.561Z,1000.65
2022-10-15T01:27:52.558Z,1000.65
2022-10-15T01:28:52.647Z,1000.61
2022-10-15T01:29:52.523Z,1000.66
2022-10-15T01:30:52.542Z,1000.57
2022-10-15T01:31:52.540Z,1000.59
2022-10-15T01:32:52.532Z,1000.59
2022-10-15T01:33:52.491Z,1000.63
2022-10-15T01:34:52.512Z,1000.63
2022-10-15T01:35:52.468Z,1000.65
2022-10-15T01:36:52.483Z,1000.61
2022-10-15T01:37:52.433Z,1000.61
2022-10-15T01:38:52.452Z,1000.61
2022-10-15T01:39:52.420Z,1000.61
2022-10-15T01:40:52.412Z,1000.62
2022-10-15T01:41:52.422Z,1000.64
2022-10-15T01:42:52.392Z,1000.64
2022-10-15T01:43:52.372Z,1000.64
2022-10-15T01:44:52.391Z,1000.69
2022-10-15T01:45:52.351Z,1000.70
2022-10-15T01:46:52.382Z,1000.69
2022-10-15T01:47:52.330Z,1000.72
2022-10-15T01:48:52.342Z,1000.76
2022-10-15T01:49:52.313Z,1000.74
2022-10-15T01:50:52.302Z,1000.69
2022-10-15T01:51:52.362Z,1000.69
2022-10-15T01:52:52.283Z,1000.70
2022-10-15T01:53:52.292Z,1000.68
2022-10-15T01:54:52.282Z,1000.68
2022-10-15T01:55:52.243Z,1000.67
2022-10-15T01:56:52.233Z,1000.68
2022-10-15T01:57:52.251Z,1000.70
2022-10-15T01:58:52.220Z,1000.68
2022-10-15T01:59:52.201Z,1000.67
2022-10-15T02:00:52.258Z,1000.69
2022-10-15T02:01:53.969Z,1000.70
2022-10-15T02:02:52.201Z,1000.65
2022-10-15T02:03:52.166Z,1000.68
2022-10-15T02:04:52.153Z,1000.64
2022-10-15T02:05:52.151Z,1000.64
2022-10-15T02:06:52.134Z,1000.68
2022-10-15T02:07:52.112Z,1000.61
2022-10-15T02:08:52.152Z,1000.63
2022-10-15T02:09:52.118Z,1000.59
2022-10-15T02:10:52.174Z,1000.65
2022-10-15T02:11:52.071Z,1000.59
2022-10-15T02:12:52.063Z,1000.60
2022-10-15T02:13:52.062Z,1000.64
2022-10-15T02:14:52.042Z,1000.63
2022-10-15T02:15:52.031Z,1000.62
2022-10-15T02:16:52.052Z,1000.56
2022-10-15T02:17:52.034Z,1000.60
2022-10-15T02:18:52.002Z,1000.55
2022-10-15T02:19:52.066Z,1000.49
2022-10-15T02:20:51.982Z,1000.53
2022-10-15T02:21:51.970Z,1000.51
2022-10-15T02:22:51.982Z,1000.52
2022-10-15T02:23:51.943Z,1000.52
2022-10-15T02:24:55.345Z,1000.50
2022-10-15T02:25:51.950Z,1000.46
2022-10-15T02:26:51.920Z,1000.52
2022-10-15T02:27:51.933Z,1000.49
2022-10-15T02:28:51.988Z,1000.48
2022-10-15T02:29:51.892Z,1000.47
2022-10-15T02:30:51.872Z,1000.47
2022-10-15T02:31:51.852Z,1000.51
2022-10-15T02:32:51.890Z,1000.49
2022-10-15T02:33:51.842Z,1000.47
2022-10-15T02:34:51.843Z,1000.50
2022-10-15T02:35:51.822Z,1000.48
2022-10-15T02:36:51.852Z,1000.48
2022-10-15T02:37:51.812Z,1000.46
2022-10-15T02:38:51.791Z,1000.43
2022-10-15T02:39:51.802Z,1000.42
2022-10-15T02:40:51.762Z,1000.39
2022-10-15T02:41:51.751Z,1000.41
2022-10-15T02:42:51.749Z,1000.43
2022-10-15T02:43:51.732Z,1000.45
2022-10-15T02:44:51.731Z,1000.41
2022-10-15T02:45:51.922Z,1000.43
2022-10-15T02:46:51.701Z,1000.50
2022-10-15T02:47:51.691Z,1000.46
2022-10-15T02:48:51.682Z,1000.50
2022-10-15T02:49:51.671Z,1000.46
2022-10-15T02:50:51.682Z,1000.45
2022-10-15T02:51:51.702Z,1000.45
2022-10-15T02:52:51.913Z,1000.49
2022-10-15T02:53:51.632Z,1000.46
2022-10-15T02:54:51.625Z,1000.47
2022-10-15T02:55:51.602Z,1000.44
2022-10-15T02:56:51.598Z,1000.49
2022-10-15T02:57:51.590Z,1000.45
2022-10-15T02:58:51.921Z,1000.42
2022-10-15T02:59:51.561Z,1000.41
2022-10-15T03:00:51.611Z,1000.47
2022-10-15T03:01:51.552Z,1000.44
2022-10-15T03:02:51.531Z,1000.43
2022-10-15T03:03:51.731Z,1000.43
2022-10-15T03:04:51.512Z,1000.46
2022-10-15T03:05:51.499Z,1000.47
2022-10-15T03:06:51.482Z,1000.41
2022-10-15T03:07:51.480Z,1000.46
2022-10-15T03:08:51.468Z,1000.46
2022-10-15T03:09:51.502Z,1000.44
2022-10-15T03:10:51.451Z,1000.46
2022-10-15T03:11:51.481Z,1000.48
2022-10-15T03:12:51.429Z,1000.45
2022-10-15T03:13:51.443Z,1000.45
2022-10-15T03:14:51.401Z,1000.43
2022-10-15T03:15:51.391Z,1000.38
2022-10-15T03:16:51.389Z,1000.42
2022-10-15T03:17:51.372Z,1000.42
2022-10-15T03:18:51.373Z,1000.41
2022-10-15T03:19:51.389Z,1000.46
2022-10-15T03:20:51.372Z,1000.42
2022-10-15T03:21:51.361Z,1000.41
2022-10-15T03:22:51.372Z,1000.39
2022-10-15T03:23:51.304Z,1000.37
2022-10-15T03:24:51.305Z,1000.37
2022-10-15T03:25:51.282Z,1000.36
2022-10-15T03:26:51.291Z,1000.38
2022-10-15T03:27:51.262Z,1000.35
2022-10-15T03:28:51.372Z,1000.38
2022-10-15T03:29:51.270Z,1000.41
2022-10-15T03:30:51.271Z,1000.42
2022-10-15T03:31:51.221Z,1000.41
2022-10-15T03:32:51.212Z,1000.42
2022-10-15T03:33:51.202Z,1000.45
2022-10-15T03:34:51.202Z,1000.45
2022-10-15T03:35:51.179Z,1000.45
2022-10-15T03:36:51.219Z,1000.42
2022-10-15T03:37:51.181Z,1000.40
2022-10-15T03:38:51.156Z,1000.39
2022-10-15T03:39:51.152Z,1000.35
2022-10-15T03:40:51.132Z,1000.36
2022-10-15T03:41:51.112Z,1000.36
2022-10-15T03:43:01.289Z,1000.33
2022-10-15T03:43:51.082Z,1000.29
2022-10-15T03:44:51.149Z,1000.27
2022-10-15T03:45:51.065Z,1000.29
2022-10-15T03:46:51.060Z,1000.29
2022-10-15T03:47:51.040Z,1000.19
2022-10-15T03:48:51.040Z,1000.22
2022-10-15T03:49:51.023Z,1000.19
2022-10-15T03:50:51.066Z,1000.13
2022-10-15T03:51:51.450Z,1000.14
2022-10-15T03:52:51.034Z,1000.09
2022-10-15T03:53:50.981Z,1000.12
2022-10-15T03:54:51.002Z,1000.14
2022-10-15T03:55:50.991Z,1000.14
2022-10-15T03:56:50.991Z,1000.16
2022-10-15T03:57:50.981Z,1000.07
2022-10-15T03:58:50.934Z,1000.08
2022-10-15T03:59:50.931Z,1000.07
2022-10-15T04:00:50.937Z,1000.08
2022-10-15T04:01:50.933Z,1000.04
2022-10-15T04:02:50.890Z,1000.04
2022-10-15T04:03:50.889Z,1000.03
2022-10-15T04:04:50.861Z,1000.06
2022-10-15T04:05:53.775Z,1000.04
2022-10-15T04:06:50.851Z,1000.10
2022-10-15T04:07:50.862Z,1000.10
2022-10-15T04:09:50.811Z,1000.09
2022-10-15T04:10:50.822Z,1000.07
2022-10-15T04:11:50.850Z,1000.09
2022-10-15T04:12:50.781Z,1000.06
2022-10-15T04:13:50.798Z,1000.06
2022-10-15T04:14:50.810Z,1000.08
2022-10-15T04:15:50.742Z,1000.09
2022-10-15T04:16:50.741Z,1000.09
2022-10-15T04:17:50.733Z,1000.08
2022-10-15T04:18:50.731Z,1000.11
2022-10-15T04:19:50.702Z,1000.12
2022-10-15T04:20:50.753Z,1000.15
2022-10-15T04:21:50.681Z,1000.16
2022-10-15T04:22:50.711Z,1000.19
2022-10-15T04:23:50.658Z,1000.22
2022-10-15T04:24:50.671Z,1000.17
2022-10-15T04:25:50.641Z,1000.26
2022-10-15T04:26:50.631Z,1000.29
2022-10-15T04:27:50.620Z,1000.27
2022-10-15T04:28:50.664Z,1000.28
2022-10-15T04:29:50.598Z,1000.29
2022-10-15T04:30:50.617Z,1000.29
2022-10-15T04:31:50.581Z,1000.26
2022-10-15T04:32:50.589Z,1000.29
2022-10-15T04:33:50.551Z,1000.28
2022-10-15T04:34:50.583Z,1000.29
2022-10-15T04:35:50.530Z,1000.30
2022-10-15T04:36:50.531Z,1000.30
2022-10-15T04:37:50.568Z,1000.30
2022-10-15T04:38:50.508Z,1000.28
2022-10-15T04:39:50.490Z,1000.29
2022-10-15T04:40:50.587Z,1000.23
2022-10-15T04:41:50.478Z,1000.25
2022-10-15T04:42:50.481Z,1000.24
2022-10-15T04:43:50.451Z,1000.26
2022-10-15T04:44:50.442Z,1000.32
2022-10-15T04:45:50.441Z,1000.31
2022-10-15T04:46:50.450Z,1000.30
2022-10-15T04:47:50.400Z,1000.30
2022-10-15T04:48:50.431Z,1000.26
2022-10-15T04:49:50.408Z,1000.30
2022-10-15T04:50:50.371Z,1000.27
2022-10-15T04:51:50.398Z,1000.32
2022-10-15T04:52:50.342Z,1000.29
2022-10-15T04:53:50.342Z,1000.30
2022-10-15T04:54:50.321Z,1000.26
2022-10-15T04:55:50.320Z,1000.32
2022-10-15T04:56:50.301Z,1000.32
2022-10-15T04:57:50.361Z,1000.33
2022-10-15T04:58:50.322Z,1000.27
2022-10-15T04:59:53.867Z,1000.28
2022-10-15T05:00:51.270Z,1000.31
2022-10-15T05:01:51.971Z,1000.22
2022-10-15T05:02:50.241Z,1000.24
2022-10-15T05:03:50.280Z,1000.18
2022-10-15T05:04:50.221Z,1000.22
2022-10-15T05:05:50.219Z,1000.26
2022-10-15T05:06:50.200Z,1000.24
2022-10-15T05:07:50.197Z,1000.23
2022-10-15T05:08:50.193Z,1000.30
2022-10-15T05:09:50.202Z,1000.28
2022-10-15T05:10:50.160Z,1000.26
2022-10-15T05:11:50.149Z,1000.28
2022-10-15T05:12:52.757Z,1000.26
2022-10-15T05:13:51.130Z,1000.23
2022-10-15T05:14:50.112Z,1000.25
2022-10-15T05:15:50.111Z,1000.22
2022-10-15T05:16:50.131Z,1000.24
2022-10-15T05:17:50.111Z,1000.25
2022-10-15T05:18:50.101Z,1000.21
2022-10-15T05:19:50.069Z,1000.22
2022-10-15T05:20:50.050Z,1000.24
2022-10-15T05:21:50.068Z,1000.26
2022-10-15T05:22:50.021Z,1000.25
2022-10-15T05:23:50.060Z,1000.26
2022-10-15T05:24:50.001Z,1000.26
2022-10-15T05:25:53.165Z,1000.31
2022-10-15T05:26:50.023Z,1000.32
2022-10-15T05:27:49.999Z,1000.31
2022-10-15T05:28:50.015Z,1000.33
2022-10-15T05:29:49.959Z,1000.25
2022-10-15T05:30:49.940Z,1000.24
2022-10-15T05:31:50.001Z,1000.23
2022-10-15T05:32:49.921Z,1000.23
2022-10-15T05:33:49.912Z,1000.25
2022-10-15T05:34:49.940Z,1000.25
2022-10-15T05:35:49.891Z,1000.20
2022-10-15T05:36:49.923Z,1000.20
2022-10-15T05:37:49.902Z,1000.23
2022-10-15T05:38:49.860Z,1000.19
2022-10-15T05:39:49.851Z,1000.20
2022-10-15T05:40:49.831Z,1000.20
2022-10-15T05:41:49.850Z,1000.16
2022-10-15T05:42:49.893Z,1000.14
2022-10-15T05:43:49.873Z,1000.19
2022-10-15T05:44:49.798Z,1000.17
2022-10-15T05:45:49.781Z,1000.16
2022-10-15T05:46:49.771Z,1000.18
2022-10-15T05:47:49.768Z,1000.18
2022-10-15T05:48:49.760Z,1000.14
2022-10-15T05:49:49.792Z,1000.14
2022-10-15T05:50:49.725Z,1000.09
2022-10-15T05:51:49.761Z,1000.11
2022-10-15T05:52:49.710Z,1000.14
2022-10-15T05:53:49.766Z,1000.12
2022-10-15T05:54:49.690Z,1000.15
2022-10-15T05:55:49.682Z,1000.16
2022-10-15T05:56:49.710Z,1000.13
2022-10-15T05:57:49.689Z,1000.18
2022-10-15T05:58:49.641Z,1000.17
2022-10-15T05:59:49.649Z,1000.20
2022-10-15T06:00:49.621Z,1000.18
2022-10-15T06:01:49.664Z,1000.24
2022-10-15T06:02:49.791Z,1000.21
2022-10-15T06:03:49.601Z,1000.21
2022-10-15T06:04:49.584Z,1000.25
2022-10-15T06:05:49.590Z,1000.24
2022-10-15T06:06:49.561Z,1000.30
2022-10-15T06:07:49.590Z,1000.28
2022-10-15T06:08:49.621Z,1000.32
2022-10-15T06:09:49.568Z,1000.31
2022-10-15T06:10:49.520Z,1000.34
2022-10-15T06:11:49.573Z,1000.37
2022-10-15T06:12:49.490Z,1000.39
2022-10-15T06:13:49.490Z,1000.42
2022-10-15T06:14:49.485Z,1000.43
2022-10-15T06:15:49.460Z,1000.41
2022-10-15T06:16:49.530Z,1000.43
2022-10-15T06:17:49.470Z,1000.45
2022-10-15T06:18:49.432Z,1000.38
2022-10-15T06:19:49.440Z,1000.45
2022-10-15T06:20:49.401Z,1000.43
2022-10-15T06:21:49.420Z,1000.39
2022-10-15T06:22:49.412Z,1000.44
2022-10-15T06:23:49.407Z,1000.40
2022-10-15T06:24:49.361Z,1000.44
2022-10-15T06:25:49.359Z,1000.44
2022-10-15T06:26:49.349Z,1000.42
2022-10-15T06:27:49.398Z,1000.45
2022-10-15T06:28:49.406Z,1000.39
2022-10-15T06:29:49.392Z,1000.42
2022-10-15T06:30:49.302Z,1000.43
2022-10-15T06:31:49.346Z,1000.47
2022-10-15T06:32:49.301Z,1000.49
2022-10-15T06:33:49.279Z,1000.46
2022-10-15T06:34:49.260Z,1000.50
2022-10-15T06:35:49.279Z,1000.53
2022-10-15T06:36:49.248Z,1000.54
2022-10-15T06:37:49.288Z,1000.51
2022-10-15T06:38:49.223Z,1000.56
2022-10-15T06:39:49.210Z,1000.53
2022-10-15T06:40:49.221Z,1000.56
2022-10-15T06:41:49.223Z,1000.52
2022-10-15T06:42:49.179Z,1000.58
2022-10-15T06:43:49.190Z,1000.56
2022-10-15T06:44:49.150Z,1000.55
2022-10-15T06:45:49.140Z,1000.54
2022-10-15T06:46:49.180Z,1000.61
2022-10-15T06:47:49.150Z,1000.59
2022-10-15T06:48:49.109Z,1000.62
2022-10-15T06:49:49.103Z,1000.61
2022-10-15T06:50:49.080Z,1000.61
2022-10-15T06:51:49.080Z,1000.64
2022-10-15T06:52:51.013Z,1000.62
2022-10-15T06:53:49.088Z,1000.61
2022-10-15T06:54:49.057Z,1000.69
2022-10-15T06:55:49.040Z,1000.67
2022-10-15T06:56:49.150Z,1000.61
2022-10-15T06:57:49.021Z,1000.67
2022-10-15T06:58:49.002Z,1000.62
2022-10-15T06:59:49.030Z,1000.70
2022-10-15T07:00:48.989Z,1000.69
2022-10-15T07:01:48.979Z,1000.67
2022-10-15T07:02:48.961Z,1000.71
2022-10-15T07:03:48.996Z,1000.70
2022-10-15T07:04:48.991Z,1000.72
2022-10-15T07:05:48.927Z,1000.74
2022-10-15T07:06:48.940Z,1000.77
2022-10-15T07:07:48.950Z,1000.77
2022-10-15T07:08:48.931Z,1000.74
2022-10-15T07:09:48.902Z,1000.76
2022-10-15T07:10:48.920Z,1000.75
2022-10-15T07:11:48.870Z,1000.77
2022-10-15T07:12:48.880Z,1000.79
2022-10-15T07:13:48.890Z,1000.78
2022-10-15T07:14:48.888Z,1000.79
2022-10-15T07:15:48.820Z,1000.79
2022-10-15T07:16:54.941Z,1000.76
2022-10-15T07:17:48.850Z,1000.78
2022-10-15T07:18:48.800Z,1000.79
2022-10-15T07:19:48.780Z,1000.78
2022-10-15T07:20:48.780Z,1000.77
2022-10-15T07:21:48.759Z,1000.73
2022-10-15T07:22:48.810Z,1000.75
2022-10-15T07:23:48.763Z,1000.76
2022-10-15T07:24:48.731Z,1000.75
2022-10-15T07:25:48.748Z,1000.69
2022-10-15T07:26:48.699Z,1000.70
2022-10-15T07:27:48.699Z,1000.74
2022-10-15T07:28:48.733Z,1000.73
2022-10-15T07:29:48.670Z,1000.73
2022-10-15T07:30:48.660Z,1000.71
2022-10-15T07:31:48.681Z,1000.76
2022-10-15T07:32:50.281Z,1000.73
2022-10-15T07:33:48.630Z,1000.78
2022-10-15T07:34:48.620Z,1000.71
2022-10-15T07:35:48.678Z,1000.73
2022-10-15T07:36:48.599Z,1000.73
2022-10-15T07:37:49.630Z,1000.72
2022-10-15T07:38:48.589Z,1000.71
2022-10-15T07:39:48.570Z,1000.70
2022-10-15T07:40:48.625Z,1000.71
2022-10-15T07:41:48.620Z,1000.71
2022-10-15T07:42:48.550Z,1000.76
2022-10-15T07:43:55.059Z,1000.72
2022-10-15T07:44:48.540Z,1000.75
2022-10-15T07:45:48.559Z,1000.75
2022-10-15T07:46:48.538Z,1000.74
2022-10-15T07:47:48.490Z,1000.72
2022-10-15T07:48:48.540Z,1000.72
2022-10-15T07:49:48.499Z,1000.74
2022-10-15T07:50:48.460Z,1000.67
2022-10-15T07:51:48.461Z,1000.65
2022-10-15T07:52:48.502Z,1000.66
2022-10-15T07:53:48.461Z,1000.66
2022-10-15T07:54:48.420Z,1000.65
2022-10-15T07:55:48.400Z,1000.64
2022-10-15T07:56:48.412Z,1000.69
2022-10-15T07:57:50.180Z,1000.69
2022-10-15T07:58:48.407Z,1000.66
2022-10-15T07:59:48.369Z,1000.68
2022-10-15T08:00:48.369Z,1000.70
2022-10-15T08:01:50.037Z,1000.68
2022-10-15T08:02:48.379Z,1000.70
2022-10-15T08:03:48.330Z,1000.70
2022-10-15T08:04:48.350Z,1000.61
2022-10-15T08:05:48.298Z,1000.62
2022-10-15T08:06:48.270Z,1000.61
2022-10-15T08:07:48.310Z,1000.59
2022-10-15T08:08:48.285Z,1000.59
2022-10-15T08:09:48.267Z,1000.60
2022-10-15T08:10:48.221Z,1000.63
2022-10-15T08:11:48.352Z,1000.61
2022-10-15T08:12:48.229Z,1000.60
2022-10-15T08:13:48.210Z,1000.60
2022-10-15T08:14:48.185Z,1000.61
2022-10-15T08:15:48.190Z,1000.62
2022-10-15T08:16:48.197Z,1000.60
2022-10-15T08:17:48.170Z,1000.59
2022-10-15T08:18:48.243Z,1000.56
2022-10-15T08:19:48.179Z,1000.56
2022-10-15T08:20:48.159Z,1000.53
2022-10-15T08:21:48.123Z,1000.52
2022-10-15T08:22:48.191Z,1000.52
2022-10-15T08:23:48.098Z,1000.45
2022-10-15T08:24:48.109Z,1000.49
2022-10-15T08:25:48.077Z,1000.48
2022-10-15T08:26:48.058Z,1000.48
2022-10-15T08:27:48.062Z,1000.45
2022-10-15T08:28:48.157Z,1000.45
2022-10-15T08:29:48.028Z,1000.53
2022-10-15T08:30:48.050Z,1000.53
2022-10-15T08:31:48.009Z,1000.50
2022-10-15T08:32:48.040Z,1000.57
2022-10-15T08:33:47.989Z,1000.51
2022-10-15T08:34:48.010Z,1000.56
2022-10-15T08:35:47.993Z,1000.55
2022-10-15T08:36:47.967Z,1000.62
2022-10-15T08:37:47.950Z,1000.63
2022-10-15T08:38:47.929Z,1000.64
2022-10-15T08:39:47.930Z,1000.70
2022-10-15T08:40:47.949Z,1000.67
2022-10-15T08:41:47.908Z,1000.66
2022-10-15T08:42:47.888Z,1000.69
2022-10-15T08:43:47.889Z,1000.70
2022-10-15T08:44:47.872Z,1000.71
2022-10-15T08:45:47.870Z,1000.73
2022-10-15T08:46:47.880Z,1000.66
2022-10-15T08:47:47.841Z,1000.62
2022-10-15T08:48:47.853Z,1000.62
2022-10-15T08:49:47.821Z,1000.61
2022-10-15T08:50:50.391Z,1000.59
2022-10-15T08:51:48.862Z,1000.57
2022-10-15T08:52:47.810Z,1000.63
2022-10-15T08:53:47.790Z,1000.61
2022-10-15T08:54:47.769Z,1000.60
2022-10-15T08:55:47.757Z,1000.56
2022-10-15T08:56:47.742Z,1000.54
2022-10-15T08:57:47.760Z,1000.52
2022-10-15T08:58:47.721Z,1000.46
2022-10-15T08:59:48.089Z,1000.41
2022-10-15T09:00:47.699Z,1000.43
2022-10-15T09:01:47.693Z,1000.42
2022-10-15T09:02:47.691Z,1000.43
2022-10-15T09:03:47.664Z,1000.50
2022-10-15T09:04:47.710Z,1000.49
2022-10-15T09:05:47.651Z,1000.49
2022-10-15T09:06:47.630Z,1000.46
2022-10-15T09:07:50.832Z,1000.47
2022-10-15T09:08:48.619Z,1000.48
2022-10-15T09:09:47.599Z,1000.42
2022-10-15T09:10:47.650Z,1000.45
2022-10-15T09:11:47.570Z,1000.42
2022-10-15T09:12:47.569Z,1000.38
2022-10-15T09:13:47.562Z,1000.40
2022-10-15T09:14:47.549Z,1000.41
2022-10-15T09:15:47.602Z,1000.39
2022-10-15T09:16:47.531Z,1000.41
2022-10-15T09:17:47.510Z,1000.32
2022-10-15T09:18:47.539Z,1000.37
2022-10-15T09:19:47.499Z,1000.33
2022-10-15T09:20:47.479Z,1000.31
2022-10-15T09:21:47.469Z,1000.32
2022-10-15T09:22:47.501Z,1000.33
2022-10-15T09:23:47.449Z,1000.32
2022-10-15T09:24:47.440Z,1000.36
2022-10-15T09:25:47.429Z,1000.35
2022-10-15T09:26:47.419Z,1000.31
2022-10-15T09:27:47.408Z,1000.33
2022-10-15T09:28:47.502Z,1000.21
2022-10-15T09:29:47.379Z,1000.19
2022-10-15T09:30:47.373Z,1000.16
2022-10-15T09:31:47.433Z,1000.14
2022-10-15T09:32:50.587Z,1000.22
2022-10-15T09:33:48.383Z,1000.20
2022-10-15T09:34:47.339Z,1000.21
2022-10-15T09:35:47.321Z,1000.19
2022-10-15T09:36:47.334Z,1000.19
2022-10-15T09:37:47.298Z,1000.16
2022-10-15T09:38:47.840Z,1000.13
2022-10-15T09:39:47.270Z,1000.10
2022-10-15T09:40:47.270Z,1000.09
2022-10-15T09:41:54.297Z,1000.13
2022-10-15T09:42:54.765Z,1000.10
2022-10-15T09:43:47.234Z,1000.13
2022-10-15T09:44:55.267Z,1000.12
2022-10-15T09:45:47.209Z,1000.12
2022-10-15T09:46:47.220Z,1000.13
2022-10-15T09:47:47.187Z,1000.14
2022-10-15T09:48:47.177Z,1000.13
2022-10-15T09:49:47.194Z,1000.11
2022-10-15T09:50:47.207Z,1000.07
2022-10-15T09:51:47.139Z,1000.06
2022-10-15T09:52:47.846Z,1000.09
2022-10-15T09:53:48.133Z,1000.08
2022-10-15T09:54:47.106Z,1000.09
2022-10-15T09:55:47.135Z,1000.08
2022-10-15T09:56:47.089Z,1000.13
2022-10-15T09:57:47.189Z,1000.03
2022-10-15T09:58:47.079Z,999.98
2022-10-15T09:59:47.057Z,1000.02
2022-10-15T10:00:47.135Z,999.99
2022-10-15T10:01:47.083Z,1000.01
2022-10-15T10:02:47.046Z,999.98
2022-10-15T10:03:47.048Z,999.98
2022-10-15T10:04:47.013Z,1000.03
2022-10-15T10:05:46.995Z,999.95
2022-10-15T10:06:46.989Z,999.98
2022-10-15T10:07:46.982Z,999.98
2022-10-15T10:09:48.974Z,999.98
2022-10-15T10:10:46.956Z,999.92
2022-10-15T10:11:46.928Z,999.90
2022-10-15T10:12:46.931Z,999.89
2022-10-15T10:13:46.898Z,999.92
2022-10-15T10:14:46.908Z,999.91
2022-10-15T10:15:46.918Z,999.88
2022-10-15T10:16:46.869Z,999.85
2022-10-15T10:17:46.894Z,999.77
2022-10-15T10:18:46.847Z,999.81
2022-10-15T10:19:46.881Z,999.77
2022-10-15T10:20:46.855Z,999.80
2022-10-15T10:21:46.850Z,999.83
2022-10-15T10:22:49.042Z,999.79
2022-10-15T10:23:46.801Z,999.79
2022-10-15T10:24:46.830Z,999.81
2022-10-15T10:25:46.819Z,999.82
2022-10-15T10:26:46.809Z,999.82
2022-10-15T10:27:46.765Z,999.82
2022-10-15T10:28:46.826Z,999.79
2022-10-15T10:29:46.872Z,999.84
2022-10-15T10:30:46.800Z,999.86
2022-10-15T10:31:46.710Z,999.78
2022-10-15T10:32:46.780Z,999.81
2022-10-15T10:33:46.701Z,999.77
2022-10-15T10:34:52.228Z,999.79
2022-10-15T10:35:47.703Z,999.79
2022-10-15T10:36:46.739Z,999.75
2022-10-15T10:37:46.652Z,999.74
2022-10-15T10:38:46.907Z,999.79
2022-10-15T10:39:46.629Z,999.74
2022-10-15T10:40:46.701Z,999.69
2022-10-15T10:41:46.620Z,999.69
2022-10-15T10:42:46.601Z,999.61
2022-10-15T10:43:46.639Z,999.68
2022-10-15T10:44:46.588Z,999.62
2022-10-15T10:45:50.068Z,999.68
2022-10-15T10:46:46.590Z,999.67
2022-10-15T10:47:47.610Z,999.62
2022-10-15T10:48:46.559Z,999.67
2022-10-15T10:49:46.547Z,999.63
2022-10-15T10:50:46.534Z,999.59
2022-10-15T10:51:46.500Z,999.61
2022-10-15T10:52:46.501Z,999.61
2022-10-15T10:53:46.511Z,999.57
2022-10-15T10:54:46.471Z,999.57
2022-10-15T10:55:46.470Z,999.61
2022-10-15T10:56:46.473Z,999.59
2022-10-15T10:57:46.449Z,999.59
2022-10-15T10:58:46.431Z,999.55
2022-10-15T10:59:46.591Z,999.57
2022-10-15T11:00:46.506Z,999.50
2022-10-15T11:01:46.520Z,999.56
2022-10-15T11:02:46.392Z,999.58
2022-10-15T11:03:46.376Z,999.63
2022-10-15T11:04:46.373Z,999.52
2022-10-15T11:05:46.361Z,999.52
2022-10-15T11:06:46.386Z,999.53
2022-10-15T11:07:46.330Z,999.52
2022-10-15T11:08:46.360Z,999.47
2022-10-15T11:09:46.333Z,999.51
2022-10-15T11:10:46.309Z,999.53
2022-10-15T11:11:46.292Z,999.57
2022-10-15T11:12:46.281Z,999.54
2022-10-15T11:13:46.290Z,999.48
2022-10-15T11:14:46.290Z,999.52
2022-10-15T11:15:46.250Z,999.55
2022-10-15T11:16:46.279Z,999.56
2022-10-15T11:17:46.239Z,999.56
2022-10-15T11:18:46.335Z,999.54
2022-10-15T11:20:57.840Z,999.54
2022-10-15T11:21:47.180Z,999.55
2022-10-15T11:22:46.222Z,999.53
2022-10-15T11:23:46.166Z,999.55
2022-10-15T11:24:48.981Z,999.52
2022-10-15T11:25:46.160Z,999.52
2022-10-15T11:26:59.199Z,999.55
2022-10-15T11:27:47.121Z,999.46
2022-10-15T11:28:46.189Z,999.49
2022-10-15T11:29:46.100Z,999.47
2022-10-15T11:30:46.090Z,999.45
2022-10-15T11:32:01.631Z,999.47
2022-10-15T11:33:06.441Z,999.47
2022-10-15T11:33:47.051Z,999.45
2022-10-15T11:34:46.039Z,999.44
2022-10-15T11:35:53.197Z,999.43
2022-10-15T11:36:48.590Z,999.38
2022-10-15T11:37:46.070Z,999.36
2022-10-15T11:38:45.998Z,999.34
2022-10-15T11:39:45.987Z,999.38
2022-10-15T11:40:46.036Z,999.34
2022-10-15T11:41:45.973Z,999.34
2022-10-15T11:42:45.951Z,999.35
2022-10-15T11:43:45.931Z,999.26
2022-10-15T11:44:45.945Z,999.31
2022-10-15T11:45:45.951Z,999.29
2022-10-15T11:46:46.824Z,999.25
2022-10-15T11:47:45.931Z,999.26
2022-10-15T11:48:45.918Z,999.23
2022-10-15T11:49:45.892Z,999.24
2022-10-15T11:50:45.911Z,999.23
2022-10-15T11:51:45.851Z,999.21
2022-10-15T11:52:45.866Z,999.18
2022-10-15T11:53:45.879Z,999.14
2022-10-15T11:54:45.846Z,999.11
2022-10-15T11:55:45.811Z,999.11
2022-10-15T11:56:45.802Z,999.12
2022-10-15T11:57:45.820Z,999.18
2022-10-15T11:58:45.837Z,999.19
2022-10-15T11:59:45.771Z,999.09
2022-10-15T12:00:45.791Z,999.01
2022-10-15T12:01:45.811Z,999.09
2022-10-15T12:02:45.755Z,999.05
2022-10-15T12:03:45.787Z,999.11
2022-10-15T12:04:45.722Z,999.10
2022-10-15T12:05:50.662Z,999.13
2022-10-15T12:06:45.741Z,999.12
2022-10-15T12:07:45.691Z,999.10
2022-10-15T12:08:45.712Z,999.11
2022-10-15T12:09:45.671Z,999.12
2022-10-15T12:10:45.670Z,999.01
2022-10-15T12:11:45.670Z,998.98
2022-10-15T12:12:45.662Z,998.99